sensor_id;sensor_type;location;lat;lon;timestamp;temperature;humidity
46091;DHT22;31826;53.572;10.170;2022-09-03T00:01:45;15.20;95.20
46091;DHT22;31826;53.572;10.170;2022-09-03T00:05:17;15.10;95.30
46091;DHT22;31826;53.572;10.170;2022-09-03T00:10:08;15.20;95.50
46091;DHT22;31826;53.572;10.170;2022-09-03T00:12:39;15.10;95.40
46091;DHT22;31826;53.572;10.170;2022-09-03T00:15:18;15.20;95.50
46091;DHT22;31826;53.572;10.170;2022-09-03T00:17:52;15.10;95.70
46091;DHT22;31826;53.572;10.170;2022-09-03T00:20:43;15.10;95.80
46091;DHT22;31826;53.572;10.170;2022-09-03T00:23:15;15.00;96.00
46091;DHT22;31826;53.572;10.170;2022-09-03T00:25:57;14.90;96.10
46091;DHT22;31826;53.572;10.170;2022-09-03T00:28:41;14.90;96.30
46091;DHT22;31826;53.572;10.170;2022-09-03T00:31:16;14.90;96.40
46091;DHT22;31826;53.572;10.170;2022-09-03T00:33:47;14.90;96.50
46091;DHT22;31826;53.572;10.170;2022-09-03T00:36:23;15.00;96.50
46091;DHT22;31826;53.572;10.170;2022-09-03T00:38:50;14.90;96.50
46091;DHT22;31826;53.572;10.170;2022-09-03T00:41:35;14.80;96.60
46091;DHT22;31826;53.572;10.170;2022-09-03T00:47:08;14.90;96.60
46091;DHT22;31826;53.572;10.170;2022-09-03T00:53:10;14.80;96.60
46091;DHT22;31826;53.572;10.170;2022-09-03T00:58:19;14.80;96.80
46091;DHT22;31826;53.572;10.170;2022-09-03T01:00:48;14.90;96.80
46091;DHT22;31826;53.572;10.170;2022-09-03T01:07:21;14.80;96.90
46091;DHT22;31826;53.572;10.170;2022-09-03T01:12:46;14.70;97.00
46091;DHT22;31826;53.572;10.170;2022-09-03T01:15:41;14.70;97.30
46091;DHT22;31826;53.572;10.170;2022-09-03T01:18:33;14.70;97.40
46091;DHT22;31826;53.572;10.170;2022-09-03T01:21:26;14.70;97.40
46091;DHT22;31826;53.572;10.170;2022-09-03T01:40:22;14.40;98.20
46091;DHT22;31826;53.572;10.170;2022-09-03T01:43:25;14.40;98.30
46091;DHT22;31826;53.572;10.170;2022-09-03T01:46:11;14.50;98.20
46091;DHT22;31826;53.572;10.170;2022-09-03T01:51:24;14.50;98.20
46091;DHT22;31826;53.572;10.170;2022-09-03T02:00:00;14.40;98.30
46091;DHT22;31826;53.572;10.170;2022-09-03T02:02:28;14.30;98.40
46091;DHT22;31826;53.572;10.170;2022-09-03T02:05:08;14.30;98.50
46091;DHT22;31826;53.572;10.170;2022-09-03T02:07:40;14.30;98.70
46091;DHT22;31826;53.572;10.170;2022-09-03T02:10:10;14.40;98.50
46091;DHT22;31826;53.572;10.170;2022-09-03T02:12:38;14.30;98.60
46091;DHT22;31826;53.572;10.170;2022-09-03T02:15:11;14.30;98.70
46091;DHT22;31826;53.572;10.170;2022-09-03T02:17:39;14.30;98.60
46091;DHT22;31826;53.572;10.170;2022-09-03T02:20:09;14.30;98.70
46091;DHT22;31826;53.572;10.170;2022-09-03T02:22:37;14.30;98.70
46091;DHT22;31826;53.572;10.170;2022-09-03T02:25:04;14.30;98.60
46091;DHT22;31826;53.572;10.170;2022-09-03T02:27:30;14.30;98.70
46091;DHT22;31826;53.572;10.170;2022-09-03T02:29:57;14.30;98.60
46091;DHT22;31826;53.572;10.170;2022-09-03T02:32:23;14.40;98.60
46091;DHT22;31826;53.572;10.170;2022-09-03T02:34:50;14.30;98.70
46091;DHT22;31826;53.572;10.170;2022-09-03T02:37:17;14.30;98.70
46091;DHT22;31826;53.572;10.170;2022-09-03T02:39:43;14.30;98.80
46091;DHT22;31826;53.572;10.170;2022-09-03T02:42:11;14.30;98.70
46091;DHT22;31826;53.572;10.170;2022-09-03T02:44:44;14.20;98.90
46091;DHT22;31826;53.572;10.170;2022-09-03T02:47:11;14.10;99.10
46091;DHT22;31826;53.572;10.170;2022-09-03T02:49:37;14.20;98.90
46091;DHT22;31826;53.572;10.170;2022-09-03T02:52:08;14.20;99.10
46091;DHT22;31826;53.572;10.170;2022-09-03T02:54:38;14.20;99.20
46091;DHT22;31826;53.572;10.170;2022-09-03T02:57:12;14.20;99.00
46091;DHT22;31826;53.572;10.170;2022-09-03T02:59:39;14.20;99.10
46091;DHT22;31826;53.572;10.170;2022-09-03T03:02:09;14.10;99.20
46091;DHT22;31826;53.572;10.170;2022-09-03T03:04:34;14.10;99.40
46091;DHT22;31826;53.572;10.170;2022-09-03T03:07:00;14.10;99.30
46091;DHT22;31826;53.572;10.170;2022-09-03T03:09:26;14.00;99.40
46091;DHT22;31826;53.572;10.170;2022-09-03T03:11:52;14.00;99.60
46091;DHT22;31826;53.572;10.170;2022-09-03T03:14:20;14.00;99.60
46091;DHT22;31826;53.572;10.170;2022-09-03T03:16:47;13.90;99.60
46091;DHT22;31826;53.572;10.170;2022-09-03T03:19:13;13.90;99.80
46091;DHT22;31826;53.572;10.170;2022-09-03T03:21:38;13.90;99.90
46091;DHT22;31826;53.572;10.170;2022-09-03T03:24:04;13.80;99.90
46091;DHT22;31826;53.572;10.170;2022-09-03T03:26:31;13.70;99.90
46091;DHT22;31826;53.572;10.170;2022-09-03T03:28:59;13.70;99.90
46091;DHT22;31826;53.572;10.170;2022-09-03T03:31:25;13.70;99.90
46091;DHT22;31826;53.572;10.170;2022-09-03T03:33:57;13.70;99.90
46091;DHT22;31826;53.572;10.170;2022-09-03T03:36:24;13.70;99.90
46091;DHT22;31826;53.572;10.170;2022-09-03T03:38:54;13.70;99.90
46091;DHT22;31826;53.572;10.170;2022-09-03T03:41:22;13.70;99.90
46091;DHT22;31826;53.572;10.170;2022-09-03T03:43:56;13.70;99.90
46091;DHT22;31826;53.572;10.170;2022-09-03T03:46:23;13.70;99.90
46091;DHT22;31826;53.572;10.170;2022-09-03T03:48:50;13.70;99.90
46091;DHT22;31826;53.572;10.170;2022-09-03T03:51:17;13.70;99.90
46091;DHT22;31826;53.572;10.170;2022-09-03T03:53:43;13.60;99.90
46091;DHT22;31826;53.572;10.170;2022-09-03T03:56:11;13.60;99.90
46091;DHT22;31826;53.572;10.170;2022-09-03T03:58:38;13.60;99.90
46091;DHT22;31826;53.572;10.170;2022-09-03T04:01:10;13.50;99.90
46091;DHT22;31826;53.572;10.170;2022-09-03T04:03:36;13.50;99.90
46091;DHT22;31826;53.572;10.170;2022-09-03T04:06:03;13.50;99.90
46091;DHT22;31826;53.572;10.170;2022-09-03T04:08:30;13.40;99.90
46091;DHT22;31826;53.572;10.170;2022-09-03T04:11:00;13.40;99.90
46091;DHT22;31826;53.572;10.170;2022-09-03T04:13:33;13.40;99.90
46091;DHT22;31826;53.572;10.170;2022-09-03T04:16:23;13.40;99.90
46091;DHT22;31826;53.572;10.170;2022-09-03T04:18:51;13.40;99.90
46091;DHT22;31826;53.572;10.170;2022-09-03T04:21:25;13.40;99.90
46091;DHT22;31826;53.572;10.170;2022-09-03T04:23:52;13.30;99.90
46091;DHT22;31826;53.572;10.170;2022-09-03T04:26:21;13.30;99.90
46091;DHT22;31826;53.572;10.170;2022-09-03T04:28:47;13.40;99.90
46091;DHT22;31826;53.572;10.170;2022-09-03T04:31:14;13.30;99.90
46091;DHT22;31826;53.572;10.170;2022-09-03T04:33:41;13.30;99.90
46091;DHT22;31826;53.572;10.170;2022-09-03T04:36:15;13.30;99.90
46091;DHT22;31826;53.572;10.170;2022-09-03T04:38:42;13.30;99.90
46091;DHT22;31826;53.572;10.170;2022-09-03T04:41:11;13.30;99.90
46091;DHT22;31826;53.572;10.170;2022-09-03T04:43:38;13.30;99.90
46091;DHT22;31826;53.572;10.170;2022-09-03T04:46:05;13.20;99.90
46091;DHT22;31826;53.572;10.170;2022-09-03T04:48:33;13.20;99.90
46091;DHT22;31826;53.572;10.170;2022-09-03T04:51:07;13.20;99.90
46091;DHT22;31826;53.572;10.170;2022-09-03T04:53:35;13.10;99.90
46091;DHT22;31826;53.572;10.170;2022-09-03T04:56:02;13.20;99.90
46091;DHT22;31826;53.572;10.170;2022-09-03T04:58:28;13.20;99.90
46091;DHT22;31826;53.572;10.170;2022-09-03T05:00:54;13.20;99.90
46091;DHT22;31826;53.572;10.170;2022-09-03T05:03:21;13.30;99.90
46091;DHT22;31826;53.572;10.170;2022-09-03T05:05:55;13.30;99.90
46091;DHT22;31826;53.572;10.170;2022-09-03T05:08:21;13.30;99.90
46091;DHT22;31826;53.572;10.170;2022-09-03T05:10:48;13.40;99.90
46091;DHT22;31826;53.572;10.170;2022-09-03T05:13:14;13.40;99.90
46091;DHT22;31826;53.572;10.170;2022-09-03T05:15:40;13.40;99.90
46091;DHT22;31826;53.572;10.170;2022-09-03T05:18:08;13.50;99.90
46091;DHT22;31826;53.572;10.170;2022-09-03T05:20:34;13.50;99.90
46091;DHT22;31826;53.572;10.170;2022-09-03T05:23:01;13.60;99.90
46091;DHT22;31826;53.572;10.170;2022-09-03T05:25:28;13.70;99.90
46091;DHT22;31826;53.572;10.170;2022-09-03T05:27:57;13.70;99.90
46091;DHT22;31826;53.572;10.170;2022-09-03T05:30:23;13.80;99.90
46091;DHT22;31826;53.572;10.170;2022-09-03T05:32:50;13.80;99.90
46091;DHT22;31826;53.572;10.170;2022-09-03T05:35:16;13.80;99.90
46091;DHT22;31826;53.572;10.170;2022-09-03T05:37:43;13.70;99.90
46091;DHT22;31826;53.572;10.170;2022-09-03T05:40:09;13.80;99.90
46091;DHT22;31826;53.572;10.170;2022-09-03T05:42:37;13.90;99.90
46091;DHT22;31826;53.572;10.170;2022-09-03T05:45:09;13.90;99.90
46091;DHT22;31826;53.572;10.170;2022-09-03T05:47:38;13.90;99.90
46091;DHT22;31826;53.572;10.170;2022-09-03T05:50:08;13.90;99.90
46091;DHT22;31826;53.572;10.170;2022-09-03T05:52:36;14.00;99.80
46091;DHT22;31826;53.572;10.170;2022-09-03T05:55:02;14.10;99.90
46091;DHT22;31826;53.572;10.170;2022-09-03T05:57:28;14.20;99.70
46091;DHT22;31826;53.572;10.170;2022-09-03T05:59:55;14.30;99.30
46091;DHT22;31826;53.572;10.170;2022-09-03T06:02:21;14.30;99.40
46091;DHT22;31826;53.572;10.170;2022-09-03T06:04:47;14.30;99.10
46091;DHT22;31826;53.572;10.170;2022-09-03T06:07:13;14.30;99.20
46091;DHT22;31826;53.572;10.170;2022-09-03T06:09:39;14.40;99.20
46091;DHT22;31826;53.572;10.170;2022-09-03T06:12:06;14.50;98.90
46091;DHT22;31826;53.572;10.170;2022-09-03T06:14:32;14.50;98.70
46091;DHT22;31826;53.572;10.170;2022-09-03T06:16:57;14.60;98.80
46091;DHT22;31826;53.572;10.170;2022-09-03T06:19:23;14.70;98.90
46091;DHT22;31826;53.572;10.170;2022-09-03T06:21:49;14.60;98.40
46091;DHT22;31826;53.572;10.170;2022-09-03T06:24:17;14.70;98.50
46091;DHT22;31826;53.572;10.170;2022-09-03T06:26:43;14.70;98.40
46091;DHT22;31826;53.572;10.170;2022-09-03T06:29:10;14.80;98.30
46091;DHT22;31826;53.572;10.170;2022-09-03T06:31:36;14.80;98.30
46091;DHT22;31826;53.572;10.170;2022-09-03T06:34:02;14.80;98.60
46091;DHT22;31826;53.572;10.170;2022-09-03T06:36:28;14.90;98.20
46091;DHT22;31826;53.572;10.170;2022-09-03T06:38:55;15.00;98.00
46091;DHT22;31826;53.572;10.170;2022-09-03T06:41:23;15.00;97.80
46091;DHT22;31826;53.572;10.170;2022-09-03T06:43:57;15.10;97.70
46091;DHT22;31826;53.572;10.170;2022-09-03T06:46:28;15.10;97.90
46091;DHT22;31826;53.572;10.170;2022-09-03T06:48:54;15.30;97.40
46091;DHT22;31826;53.572;10.170;2022-09-03T06:51:22;15.50;97.50
46091;DHT22;31826;53.572;10.170;2022-09-03T06:53:51;15.60;96.90
46091;DHT22;31826;53.572;10.170;2022-09-03T06:56:19;15.80;96.80
46091;DHT22;31826;53.572;10.170;2022-09-03T06:58:53;15.80;96.40
46091;DHT22;31826;53.572;10.170;2022-09-03T07:01:29;15.90;96.70
46091;DHT22;31826;53.572;10.170;2022-09-03T07:03:57;15.80;96.30
46091;DHT22;31826;53.572;10.170;2022-09-03T07:06:25;15.90;96.40
46091;DHT22;31826;53.572;10.170;2022-09-03T07:08:52;16.00;96.30
46091;DHT22;31826;53.572;10.170;2022-09-03T07:11:20;16.20;96.00
46091;DHT22;31826;53.572;10.170;2022-09-03T07:13:49;16.40;95.60
46091;DHT22;31826;53.572;10.170;2022-09-03T07:16:22;16.30;95.60
46091;DHT22;31826;53.572;10.170;2022-09-03T07:18:48;16.30;96.00
46091;DHT22;31826;53.572;10.170;2022-09-03T07:21:17;16.60;96.00
46091;DHT22;31826;53.572;10.170;2022-09-03T07:23:43;16.70;95.10
46091;DHT22;31826;53.572;10.170;2022-09-03T07:26:18;16.70;95.00
46091;DHT22;31826;53.572;10.170;2022-09-03T07:28:47;16.80;95.30
46091;DHT22;31826;53.572;10.170;2022-09-03T07:31:24;17.00;95.10
46091;DHT22;31826;53.572;10.170;2022-09-03T07:34:01;17.10;94.90
46091;DHT22;31826;53.572;10.170;2022-09-03T07:36:40;17.20;94.60
46091;DHT22;31826;53.572;10.170;2022-09-03T07:39:08;17.10;94.50
46091;DHT22;31826;53.572;10.170;2022-09-03T07:41:36;17.30;94.70
46091;DHT22;31826;53.572;10.170;2022-09-03T07:44:02;17.50;94.30
46091;DHT22;31826;53.572;10.170;2022-09-03T07:46:31;17.50;94.20
46091;DHT22;31826;53.572;10.170;2022-09-03T07:48:58;17.80;94.20
46091;DHT22;31826;53.572;10.170;2022-09-03T07:51:28;18.00;94.10
46091;DHT22;31826;53.572;10.170;2022-09-03T07:53:56;18.30;93.60
46091;DHT22;31826;53.572;10.170;2022-09-03T07:56:23;18.40;92.80
46091;DHT22;31826;53.572;10.170;2022-09-03T07:58:49;18.30;92.20
46091;DHT22;31826;53.572;10.170;2022-09-03T08:01:18;18.30;92.80
46091;DHT22;31826;53.572;10.170;2022-09-03T08:03:46;18.40;92.10
46091;DHT22;31826;53.572;10.170;2022-09-03T08:06:12;18.50;92.10
46091;DHT22;31826;53.572;10.170;2022-09-03T08:08:39;18.50;92.20
46091;DHT22;31826;53.572;10.170;2022-09-03T08:11:10;18.60;92.20
46091;DHT22;31826;53.572;10.170;2022-09-03T08:13:40;18.70;91.60
46091;DHT22;31826;53.572;10.170;2022-09-03T08:16:10;18.80;91.40
46091;DHT22;31826;53.572;10.170;2022-09-03T08:18:37;18.80;91.80
46091;DHT22;31826;53.572;10.170;2022-09-03T08:21:12;19.00;92.00
46091;DHT22;31826;53.572;10.170;2022-09-03T08:23:41;19.20;91.10
46091;DHT22;31826;53.572;10.170;2022-09-03T08:26:07;19.60;91.30
46091;DHT22;31826;53.572;10.170;2022-09-03T08:28:36;19.90;90.70
46091;DHT22;31826;53.572;10.170;2022-09-03T08:31:12;20.00;88.90
46091;DHT22;31826;53.572;10.170;2022-09-03T08:33:46;20.10;88.50
46091;DHT22;31826;53.572;10.170;2022-09-03T08:36:24;19.80;87.60
46091;DHT22;31826;53.572;10.170;2022-09-03T08:38:50;19.50;90.00
46091;DHT22;31826;53.572;10.170;2022-09-03T08:41:40;19.70;89.10
46091;DHT22;31826;53.572;10.170;2022-09-03T08:44:14;19.70;88.00
46091;DHT22;31826;53.572;10.170;2022-09-03T08:46:50;19.50;88.10
46091;DHT22;31826;53.572;10.170;2022-09-03T08:52:02;19.90;88.20
46091;DHT22;31826;53.572;10.170;2022-09-03T08:54:31;20.20;86.30
46091;DHT22;31826;53.572;10.170;2022-09-03T08:57:00;20.10;85.90
46091;DHT22;31826;53.572;10.170;2022-09-03T08:59:27;20.30;85.40
46091;DHT22;31826;53.572;10.170;2022-09-03T09:01:59;20.50;85.00
46091;DHT22;31826;53.572;10.170;2022-09-03T09:12:40;19.70;86.00
46091;DHT22;31826;53.572;10.170;2022-09-03T09:16:00;20.00;86.90
46091;DHT22;31826;53.572;10.170;2022-09-03T09:23:32;21.00;84.00
46091;DHT22;31826;53.572;10.170;2022-09-03T09:26:05;21.30;83.30
46091;DHT22;31826;53.572;10.170;2022-09-03T09:28:36;21.40;82.40
46091;DHT22;31826;53.572;10.170;2022-09-03T09:31:04;21.40;80.70
46091;DHT22;31826;53.572;10.170;2022-09-03T09:33:33;21.50;81.40
46091;DHT22;31826;53.572;10.170;2022-09-03T09:36:11;21.40;81.50
46091;DHT22;31826;53.572;10.170;2022-09-03T09:38:40;21.10;80.80
46091;DHT22;31826;53.572;10.170;2022-09-03T09:41:18;21.10;81.20
46091;DHT22;31826;53.572;10.170;2022-09-03T09:43:45;21.60;82.70
46091;DHT22;31826;53.572;10.170;2022-09-03T09:46:13;21.90;78.50
46091;DHT22;31826;53.572;10.170;2022-09-03T09:48:52;22.20;78.90
46091;DHT22;31826;53.572;10.170;2022-09-03T09:51:30;22.40;78.10
46091;DHT22;31826;53.572;10.170;2022-09-03T09:56:33;22.70;73.00
46091;DHT22;31826;53.572;10.170;2022-09-03T09:59:05;22.70;75.20
46091;DHT22;31826;53.572;10.170;2022-09-03T10:01:33;22.80;74.50
46091;DHT22;31826;53.572;10.170;2022-09-03T10:04:07;22.70;72.50
46091;DHT22;31826;53.572;10.170;2022-09-03T10:06:34;22.90;73.80
46091;DHT22;31826;53.572;10.170;2022-09-03T10:09:26;22.80;71.00
46091;DHT22;31826;53.572;10.170;2022-09-03T10:14:46;22.90;70.20
46091;DHT22;31826;53.572;10.170;2022-09-03T10:20:06;23.20;68.90
46091;DHT22;31826;53.572;10.170;2022-09-03T10:22:55;23.10;67.70
46091;DHT22;31826;53.572;10.170;2022-09-03T10:25:25;23.50;66.80
46091;DHT22;31826;53.572;10.170;2022-09-03T10:27:52;24.00;66.90
46091;DHT22;31826;53.572;10.170;2022-09-03T10:30:19;23.50;65.80
46091;DHT22;31826;53.572;10.170;2022-09-03T10:33:11;23.10;66.10
46091;DHT22;31826;53.572;10.170;2022-09-03T10:36:10;23.10;67.00
46091;DHT22;31826;53.572;10.170;2022-09-03T10:38:34;23.00;65.80
46091;DHT22;31826;53.572;10.170;2022-09-03T10:41:31;23.70;67.70
46091;DHT22;31826;53.572;10.170;2022-09-03T10:50:14;23.60;65.00
46091;DHT22;31826;53.572;10.170;2022-09-03T10:53:03;24.00;63.90
46091;DHT22;31826;53.572;10.170;2022-09-03T11:01:15;23.40;64.60
46091;DHT22;31826;53.572;10.170;2022-09-03T11:06:54;24.20;62.90
46091;DHT22;31826;53.572;10.170;2022-09-03T11:12:10;23.60;63.30
46091;DHT22;31826;53.572;10.170;2022-09-03T11:14:44;23.80;61.30
46091;DHT22;31826;53.572;10.170;2022-09-03T11:18:00;23.50;62.00
46091;DHT22;31826;53.572;10.170;2022-09-03T11:22:30;24.20;60.40
46091;DHT22;31826;53.572;10.170;2022-09-03T11:24:58;24.20;60.70
46091;DHT22;31826;53.572;10.170;2022-09-03T11:33:09;23.50;60.20
46091;DHT22;31826;53.572;10.170;2022-09-03T11:35:37;23.70;61.30
46091;DHT22;31826;53.572;10.170;2022-09-03T11:38:05;24.10;59.50
46091;DHT22;31826;53.572;10.170;2022-09-03T11:40:37;24.30;60.70
46091;DHT22;31826;53.572;10.170;2022-09-03T11:45:37;25.80;59.30
46091;DHT22;31826;53.572;10.170;2022-09-03T11:48:43;26.20;58.10
46091;DHT22;31826;53.572;10.170;2022-09-03T11:51:36;25.00;54.90
46091;DHT22;31826;53.572;10.170;2022-09-03T11:56:36;23.80;55.90
46091;DHT22;31826;53.572;10.170;2022-09-03T12:04:23;24.00;57.80
46091;DHT22;31826;53.572;10.170;2022-09-03T12:15:39;23.40;59.90
46091;DHT22;31826;53.572;10.170;2022-09-03T12:18:11;23.90;58.00
46091;DHT22;31826;53.572;10.170;2022-09-03T12:20:45;24.40;58.80
46091;DHT22;31826;53.572;10.170;2022-09-03T12:23:30;24.80;55.80
46091;DHT22;31826;53.572;10.170;2022-09-03T12:26:04;25.00;56.60
46091;DHT22;31826;53.572;10.170;2022-09-03T12:28:33;24.90;55.90
46091;DHT22;31826;53.572;10.170;2022-09-03T12:31:17;24.80;56.30
46091;DHT22;31826;53.572;10.170;2022-09-03T12:33:57;24.80;56.30
46091;DHT22;31826;53.572;10.170;2022-09-03T12:36:42;24.30;56.90
46091;DHT22;31826;53.572;10.170;2022-09-03T12:39:28;23.60;57.50
46091;DHT22;31826;53.572;10.170;2022-09-03T12:42:04;23.90;58.20
46091;DHT22;31826;53.572;10.170;2022-09-03T12:47:05;24.30;55.70
46091;DHT22;31826;53.572;10.170;2022-09-03T12:49:36;24.40;57.20
46091;DHT22;31826;53.572;10.170;2022-09-03T12:52:30;24.90;55.90
46091;DHT22;31826;53.572;10.170;2022-09-03T12:57:47;25.90;55.00
46091;DHT22;31826;53.572;10.170;2022-09-03T13:00:15;25.90;54.00
46091;DHT22;31826;53.572;10.170;2022-09-03T13:08:07;23.80;56.50
46091;DHT22;31826;53.572;10.170;2022-09-03T13:10:38;23.50;57.00
46091;DHT22;31826;53.572;10.170;2022-09-03T13:13:27;23.50;56.90
46091;DHT22;31826;53.572;10.170;2022-09-03T13:30:08;23.30;57.60
46091;DHT22;31826;53.572;10.170;2022-09-03T13:38:41;22.60;57.60
46091;DHT22;31826;53.572;10.170;2022-09-03T13:41:28;22.50;57.80
46091;DHT22;31826;53.572;10.170;2022-09-03T13:47:34;22.20;57.90
46091;DHT22;31826;53.572;10.170;2022-09-03T13:49:50;23.00;57.90
46091;DHT22;31826;53.572;10.170;2022-09-03T13:52:45;23.20;57.80
46091;DHT22;31826;53.572;10.170;2022-09-03T13:58:04;22.90;58.30
46091;DHT22;31826;53.572;10.170;2022-09-03T14:03:58;23.00;57.70
46091;DHT22;31826;53.572;10.170;2022-09-03T14:06:40;23.30;57.00
46091;DHT22;31826;53.572;10.170;2022-09-03T14:12:18;23.60;56.40
46091;DHT22;31826;53.572;10.170;2022-09-03T14:14:55;23.30;56.70
46091;DHT22;31826;53.572;10.170;2022-09-03T14:17:40;23.00;57.40
46091;DHT22;31826;53.572;10.170;2022-09-03T14:20:21;23.20;57.10
46091;DHT22;31826;53.572;10.170;2022-09-03T14:25:38;23.70;57.40
46091;DHT22;31826;53.572;10.170;2022-09-03T14:36:42;24.50;54.50
46091;DHT22;31826;53.572;10.170;2022-09-03T14:40:02;24.40;55.20
46091;DHT22;31826;53.572;10.170;2022-09-03T14:47:45;23.70;55.50
46091;DHT22;31826;53.572;10.170;2022-09-03T14:56:08;23.10;56.60
46091;DHT22;31826;53.572;10.170;2022-09-03T14:58:42;23.10;56.00
46091;DHT22;31826;53.572;10.170;2022-09-03T15:01:38;23.00;56.50
46091;DHT22;31826;53.572;10.170;2022-09-03T15:07:29;22.90;56.00
46091;DHT22;31826;53.572;10.170;2022-09-03T15:13:11;22.40;57.00
46091;DHT22;31826;53.572;10.170;2022-09-03T15:18:19;22.00;57.60
46091;DHT22;31826;53.572;10.170;2022-09-03T15:21:00;22.00;58.10
46091;DHT22;31826;53.572;10.170;2022-09-03T15:23:59;21.90;58.10
46091;DHT22;31826;53.572;10.170;2022-09-03T15:27:04;21.90;58.10
46091;DHT22;31826;53.572;10.170;2022-09-03T15:29:32;22.00;58.10
46091;DHT22;31826;53.572;10.170;2022-09-03T15:37:44;22.00;58.00
46091;DHT22;31826;53.572;10.170;2022-09-03T15:42:51;21.80;58.10
46091;DHT22;31826;53.572;10.170;2022-09-03T15:48:29;21.90;58.50
46091;DHT22;31826;53.572;10.170;2022-09-03T15:51:27;21.80;58.40
46091;DHT22;31826;53.572;10.170;2022-09-03T15:54:12;21.90;58.80
46091;DHT22;31826;53.572;10.170;2022-09-03T15:56:52;21.90;58.80
46091;DHT22;31826;53.572;10.170;2022-09-03T15:59:20;21.70;59.30
46091;DHT22;31826;53.572;10.170;2022-09-03T16:01:57;21.80;59.80
46091;DHT22;31826;53.572;10.170;2022-09-03T16:05:10;21.80;59.90
46091;DHT22;31826;53.572;10.170;2022-09-03T16:08:03;21.90;60.50
46091;DHT22;31826;53.572;10.170;2022-09-03T16:10:56;21.70;59.50
46091;DHT22;31826;53.572;10.170;2022-09-03T16:16:27;21.50;60.50
46091;DHT22;31826;53.572;10.170;2022-09-03T16:19:15;21.60;60.30
46091;DHT22;31826;53.572;10.170;2022-09-03T16:24:37;21.50;59.70
46091;DHT22;31826;53.572;10.170;2022-09-03T16:30:02;21.40;59.70
46091;DHT22;31826;53.572;10.170;2022-09-03T16:43:39;21.30;59.80
46091;DHT22;31826;53.572;10.170;2022-09-03T16:57:44;21.10;61.30
46091;DHT22;31826;53.572;10.170;2022-09-03T17:00:15;21.20;61.50
46091;DHT22;31826;53.572;10.170;2022-09-03T17:03:20;21.20;61.60
46091;DHT22;31826;53.572;10.170;2022-09-03T17:06:02;21.10;61.60
46091;DHT22;31826;53.572;10.170;2022-09-03T17:08:52;21.10;61.70
46091;DHT22;31826;53.572;10.170;2022-09-03T17:25:00;20.40;64.40
46091;DHT22;31826;53.572;10.170;2022-09-03T17:33:56;20.30;64.80
46091;DHT22;31826;53.572;10.170;2022-09-03T17:36:26;20.20;65.10
46091;DHT22;31826;53.572;10.170;2022-09-03T17:41:52;20.00;65.40
46091;DHT22;31826;53.572;10.170;2022-09-03T17:50:04;19.80;65.70
46091;DHT22;31826;53.572;10.170;2022-09-03T17:52:36;19.80;66.30
46091;DHT22;31826;53.572;10.170;2022-09-03T17:58:02;19.70;66.50
46091;DHT22;31826;53.572;10.170;2022-09-03T18:03:38;19.60;66.80
46091;DHT22;31826;53.572;10.170;2022-09-03T18:06:09;19.60;67.00
46091;DHT22;31826;53.572;10.170;2022-09-03T18:11:56;19.40;67.70
46091;DHT22;31826;53.572;10.170;2022-09-03T18:17:36;19.30;68.40
46091;DHT22;31826;53.572;10.170;2022-09-03T18:20:11;19.20;68.60
46091;DHT22;31826;53.572;10.170;2022-09-03T18:23:28;19.10;69.10
46091;DHT22;31826;53.572;10.170;2022-09-03T18:26:15;19.00;69.40
46091;DHT22;31826;53.572;10.170;2022-09-03T18:29:13;19.00;69.80
46091;DHT22;31826;53.572;10.170;2022-09-03T18:31:59;18.90;70.20
46091;DHT22;31826;53.572;10.170;2022-09-03T18:34:45;18.80;70.40
46091;DHT22;31826;53.572;10.170;2022-09-03T18:37:30;18.70;70.60
46091;DHT22;31826;53.572;10.170;2022-09-03T18:40:27;18.70;70.90
46091;DHT22;31826;53.572;10.170;2022-09-03T18:43:44;18.70;71.60
46091;DHT22;31826;53.572;10.170;2022-09-03T18:56:14;18.40;72.30
46091;DHT22;31826;53.572;10.170;2022-09-03T19:02:27;18.20;72.60
46091;DHT22;31826;53.572;10.170;2022-09-03T19:08:45;18.20;73.10
46091;DHT22;31826;53.572;10.170;2022-09-03T19:12:02;18.10;73.10
46091;DHT22;31826;53.572;10.170;2022-09-03T19:15:00;18.00;73.60
46091;DHT22;31826;53.572;10.170;2022-09-03T19:18:08;18.00;73.80
46091;DHT22;31826;53.572;10.170;2022-09-03T19:24:00;17.90;74.10
46091;DHT22;31826;53.572;10.170;2022-09-03T19:26:57;17.80;74.20
46091;DHT22;31826;53.572;10.170;2022-09-03T19:33:01;17.80;74.70
46091;DHT22;31826;53.572;10.170;2022-09-03T19:51:56;17.50;75.60
46091;DHT22;31826;53.572;10.170;2022-09-03T19:54:41;17.50;75.80
46091;DHT22;31826;53.572;10.170;2022-09-03T19:57:28;17.50;76.10
46091;DHT22;31826;53.572;10.170;2022-09-03T20:00:13;17.50;75.90
46091;DHT22;31826;53.572;10.170;2022-09-03T20:02:58;17.40;76.20
46091;DHT22;31826;53.572;10.170;2022-09-03T20:05:43;17.30;76.50
46091;DHT22;31826;53.572;10.170;2022-09-03T20:08:28;17.40;76.90
46091;DHT22;31826;53.572;10.170;2022-09-03T20:11:18;17.40;76.70
46091;DHT22;31826;53.572;10.170;2022-09-03T20:13:44;17.30;76.70
46091;DHT22;31826;53.572;10.170;2022-09-03T20:19:24;17.20;77.10
46091;DHT22;31826;53.572;10.170;2022-09-03T20:24:35;17.20;77.70
46091;DHT22;31826;53.572;10.170;2022-09-03T20:27:38;17.10;77.60
46091;DHT22;31826;53.572;10.170;2022-09-03T20:30:06;17.10;77.80
46091;DHT22;31826;53.572;10.170;2022-09-03T20:35:26;17.00;78.60
46091;DHT22;31826;53.572;10.170;2022-09-03T20:46:38;16.90;79.60
46091;DHT22;31826;53.572;10.170;2022-09-03T20:52:20;16.80;80.70
46091;DHT22;31826;53.572;10.170;2022-09-03T20:54:58;16.90;81.70
46091;DHT22;31826;53.572;10.170;2022-09-03T21:00:17;16.70;82.60
46091;DHT22;31826;53.572;10.170;2022-09-03T21:05:42;16.70;84.20
46091;DHT22;31826;53.572;10.170;2022-09-03T21:08:34;16.70;85.00
46091;DHT22;31826;53.572;10.170;2022-09-03T21:14:14;16.60;87.00
46091;DHT22;31826;53.572;10.170;2022-09-03T21:19:55;16.60;88.80
46091;DHT22;31826;53.572;10.170;2022-09-03T21:22:50;16.50;89.80
46091;DHT22;31826;53.572;10.170;2022-09-03T21:26:10;16.60;90.30
46091;DHT22;31826;53.572;10.170;2022-09-03T21:30:52;16.40;91.20
46091;DHT22;31826;53.572;10.170;2022-09-03T21:33:22;16.40;91.60
46091;DHT22;31826;53.572;10.170;2022-09-03T21:35:53;16.40;92.00
46091;DHT22;31826;53.572;10.170;2022-09-03T21:38:25;16.30;92.40
46091;DHT22;31826;53.572;10.170;2022-09-03T21:41:17;16.20;92.80
46091;DHT22;31826;53.572;10.170;2022-09-03T21:44:11;16.30;93.10
46091;DHT22;31826;53.572;10.170;2022-09-03T21:46:53;16.30;92.90